Current Weather

Fairford

Fairford, United Kingdom (EGVA)

Report from: Monday, July 22, 2024 11:50 AM BST
Current time: Monday, July 22, 2024 12:39 PM BST

Nearby weather – Weather history – Daily summaries
Weather forecast

Temperature21.0°C (69.8°F)
Dew point14.0°C (57.2°F)
Winds 13 kts (6.7 m/s, 15 mph) West (260°)
Visibility6.2 mi. (10 km)
Clouds Ceiling: Broken clouds 2,400 ft. (732 m)
Broken clouds 2,500 ft. (762 m)
Altimeter29.88 in.Hg (1012 mB)
Relative humidity64 %
Density altitude965 ft. (294 m)
Flight conditions Marginal Visual Meteorological Conditions
Raw dataEGVA 221050Z 26013KT 9999 BKN024 21/14 Q1012 BECMG BKN025
An error has occurred. This application may no longer respond until reloaded. Reload 🗙